Impacts METAR Board
IDs:

KDFW - Dallas-Ft Worth Intl, TX, US

Updated at: 1400 UTC 21 May 2019
Potential Impact None Slight Moderate High
Time 21/02Z 21/03Z 21/04Z 21/05Z 21/06Z 21/07Z 21/08Z 21/09Z 21/10Z 21/11Z 21/12Z 21/13Z 21/14Z
Temp82 80 79 78 77 77 77 77 78 77 66 67 68
Dewpt67 67 68 68 67 67 67 67 67 68 64 64 62
Altim29.59 29.58 29.57 29.57 29.53 29.51 29.50 29.54 29.60 29.57 29.62 29.62 29.64
VIS10 10 10 10 10 10 10 10 10 10 10 10 10
CIG250 300 300 31 30 30 31 30 43 90 70 70 75
CoverOVCOVCOVCBKNOVCOVCOVCOVCOVCOVCOVCBKNOVC
FltCatVFRVFRVFRVFRMVFRMVFRVFRMVFRVFRVFRVFRVFRVFR
WX-------------------------RA
WDir160160160160160160170180200160210200220
WSpd18 20 20 16 23 20 21 16 13 15 7 10 11
WGst24 32 31 32 33 33 33 26 19 -- -- -- --
Raw hourly METARs
KDFW 210153Z 16018G24KT 10SM BKN250 OVC300 28/19 A2959 RMK AO2 PK WND 16031/0058 SLP011 T02780194
KDFW 210253Z 16020G32KT 10SM FEW050 SCT250 OVC300 27/19 A2958 RMK AO2 PK WND 15032/0251 SLP008 T02670194 50010
KDFW 210353Z 16020G31KT 10SM FEW032 OVC300 26/20 A2957 RMK AO2 PK WND 17033/0338 SLP004 T02610200
KDFW 210453Z 16016G32KT 10SM BKN031 BKN040 BKN300 26/20 A2957 RMK AO2 PK WND 16032/0410 SLP003 T02560200
KDFW 210553Z 16023G33KT 10SM BKN030 OVC300 25/19 A2953 RMK AO2 PK WND 16035/0543 SLP989 T02500194 10294 20250 403060211 58019
KDFW 210653Z 16020G33KT 10SM BKN030 OVC300 25/19 A2951 RMK AO2 PK WND 15037/0642 SLP984 T02500194
KDFW 210753Z 17021G33KT 10SM BKN031 BKN038 OVC300 25/19 A2950 RMK AO2 PK WND 16036/0743 SLP982 T02500194
KDFW 210853Z 18016G26KT 10SM BKN030 BKN036 OVC300 25/19 A2954 RMK AO2 PK WND 16030/0816 SLP992 T02500194 53004
KDFW 210953Z 20013G19KT 10SM SCT032 BKN043 BKN075 OVC300 26/19 A2960 RMK AO2 SLP013 T02560194
KDFW 211053Z 16015KT 10SM FEW039 SCT070 BKN090 OVC300 25/20 A2957 RMK AO2 SLP002 OCNL LTGICCC DSNT W-N CB DSNT W-N MOV NE T02500200
KDFW 211202Z 21007KT 10SM FEW035 BKN070 OVC100 19/18 A2962 RMK AO2 LTG DSNT NE RAE02 TSE01 TS MOVD E CB DSNT NE-E P0000 T01890178
KDFW 211253Z 20010KT 10SM FEW035 BKN070 BKN120 BKN250 19/18 A2962 RMK AO2 RAE02B22E34 TSE01 SLP024 TS MOVD E CB DSNT NE-E MOV E SHRA SW-NW P0000 T01940178
KDFW 211353Z 22011KT 10SM -RA FEW050 BKN075 OVC120 20/17 A2964 RMK AO2 LTG DSNT SW AND W RAB46 SLP028 P0000 T02000167



Page loaded:  14:29 UTC  |   07:29 AM Pacific  |   08:29 AM Mountain  |   09:29 AM Central  |   10:29 AM Eastern

 

ADVISORIES

FORECASTS

FORECASTS

OBSERVATIONS

USER TOOLS

ABOUT US